Umm Salal — 9HA2682 — position and weather

sailwx.info

Track history (hours):
 
Tides and Currents Weather Stations Pressure Air Temp Water Temp Dewpoint Dewpoint Depression Visibility Wind Speed Wind Dir Waves Ship Positions

Umm Salal

Last reported at 2018-May-21 13:08 UTC. Time now 2018-May-23 02:57 UTC.
Position N 01°15' E 104°02'.

Length 366 m; draft 9 m.

Type: Ship (hazmat cat A). MMSI: 215237000.

Date/timePositionNaut miles runAvg speedWind from/ knotsBaromVisibWave heightAir tempDewpointWater temp
2018-May-21 13:08N 01°15' E 104°02'413.7
2018-May-21 12:50N 01°14' E 103°57'513.4
2018-May-21 12:28N 01°12' E 103°53'510.2
2018-May-21 12:00N 01°12' E 103°48'4 7.2
2018-May-21 11:29N 01°15' E 103°46'1 2.6
2018-May-21 10:56N 01°17' E 103°47'0 0.0
2018-May-21 10:26N 01°17' E 103°47'0 0.0
2018-May-21 09:59N 01°17' E 103°47'0 0.0
2018-May-21 09:26N 01°17' E 103°47'0 0.0
2018-May-21 08:56N 01°17' E 103°47'0 0.0
2018-May-21 08:29N 01°17' E 103°47'0 0.0
2018-May-21 07:53N 01°17' E 103°47'0 0.0
2018-May-21 07:26N 01°17' E 103°47'0 0.0
2018-May-21 06:56N 01°17' E 103°47'0 0.0
2018-May-21 06:26N 01°17' E 103°47'0 0.0
2018-May-21 05:59N 01°17' E 103°47'0 0.0
2018-May-21 05:26N 01°17' E 103°47'0 0.0
2018-May-21 04:50N 01°17' E 103°47'0 0.0
2018-May-21 04:26N 01°17' E 103°47'0 0.0
2018-May-21 03:59N 01°17' E 103°47'0 0.0
2018-May-21 03:26N 01°17' E 103°47'0 0.0
2018-May-21 02:56N 01°17' E 103°47'0 0.0
2018-May-21 02:29N 01°17' E 103°47'0 0.0
2018-May-21 01:53N 01°17' E 103°47'0 0.0
2018-May-21 01:20N 01°17' E 103°47'0 0.0
2018-May-21 01:00N 01°17' E 103°47'0 0.0
2018-May-21 00:30N 01°17' E 103°47'0 0.7
2018-May-21 00:00N 01°16' E 103°47'1 2.2
2018-May-20 23:30N 01°15' E 103°47'0 0.6
2018-May-20 23:00N 01°15' E 103°47'2 3.3
2018-May-20 22:30N 01°15' E 103°45'611.2
2018-May-20 22:00N 01°13' E 103°40'510.3
2018-May-20 21:30N 01°12' E 103°35'510.3
2018-May-20 21:00N 01°10' E 103°30'5 9.9
2018-May-20 20:30N 01°12' E 103°25'1 2.0
2018-May-20 20:00N 01°12' E 103°25'2 3.9
2018-May-20 19:30N 01°13' E 103°23'4 8.7
2018-May-20 18:59N 01°16' E 103°20'610.5
2018-May-20 18:27N 01°20' E 103°16'510.5
2018-May-20 17:57N 01°23' E 103°11'711.3
2018-May-20 17:22N 01°27' E 103°06'  
2018-May-13 17:14N 16°40' E 065°40'718.0
2018-May-13 16:51N 16°45' E 065°35'618.0
2018-May-13 16:30N 16°49' E 065°31'917.9
2018-May-13 16:00N 16°56' E 065°25'918.5
2018-May-13 15:30N 17°03' E 065°18'918.5
2018-May-13 14:59N 17°10' E 065°12'918.7
2018-May-13 14:30N 17°17' E 065°05'918.6
2018-May-13 14:00N 17°24' E 064°58'918.5
2018-May-13 13:30N 17°31' E 064°53'918.3
2018-May-13 13:00N 17°38' E 064°46'918.1
2018-May-13 12:30N 17°44' E 064°40'1018.1
2018-May-13 11:56N 17°52' E 064°33'818.0
2018-May-13 11:30N 17°58' E 064°28'917.8
2018-May-13 11:00N 18°05' E 064°22'5217.7
2018-May-13 08:04N 18°45' E 063°46'717.9
2018-May-13 07:41N 18°50' E 063°42'318.0
2018-May-13 07:30N 18°52' E 063°39'2918.2
2018-May-13 05:55N 19°14' E 063°19'1218.3
2018-May-13 05:16N 19°23' E 063°11'618.3
2018-May-13 04:56N 19°28' E 063°07'818.1
2018-May-13 04:28N 19°34' E 063°01'918.4
2018-May-13 03:58N 19°41' E 062°55'818.4
2018-May-13 03:30N 19°48' E 062°49'1018.5
2018-May-13 02:57N 19°56' E 062°42'  
Track history (hours):
 
Tides and Currents Weather Stations Pressure Air Temp Water Temp Dewpoint Dewpoint Depression Visibility Wind Speed Wind Dir Waves Ship Positions

Umm Salal

Last reported at 2018-May-21 13:08 UTC. Time now 2018-May-23 02:57 UTC.
Position N 01°15' E 104°02'.

Length 366 m; draft 9 m.

Type: Ship (hazmat cat A). MMSI: 215237000.

Date/timePositionNaut miles runAvg speedWind from/ knotsBaromVisibWave heightAir tempDewpointWater temp
2018-May-21 13:08N 01°15' E 104°02'413.7
2018-May-21 12:50N 01°14' E 103°57'513.4
2018-May-21 12:28N 01°12' E 103°53'510.2
2018-May-21 12:00N 01°12' E 103°48'4 7.2
2018-May-21 11:29N 01°15' E 103°46'1 2.6
2018-May-21 10:56N 01°17' E 103°47'0 0.0
2018-May-21 10:26N 01°17' E 103°47'0 0.0
2018-May-21 09:59N 01°17' E 103°47'0 0.0
2018-May-21 09:26N 01°17' E 103°47'0 0.0
2018-May-21 08:56N 01°17' E 103°47'0 0.0
2018-May-21 08:29N 01°17' E 103°47'0 0.0
2018-May-21 07:53N 01°17' E 103°47'0 0.0
2018-May-21 07:26N 01°17' E 103°47'0 0.0
2018-May-21 06:56N 01°17' E 103°47'0 0.0
2018-May-21 06:26N 01°17' E 103°47'0 0.0
2018-May-21 05:59N 01°17' E 103°47'0 0.0
2018-May-21 05:26N 01°17' E 103°47'0 0.0
2018-May-21 04:50N 01°17' E 103°47'0 0.0
2018-May-21 04:26N 01°17' E 103°47'0 0.0
2018-May-21 03:59N 01°17' E 103°47'0 0.0
2018-May-21 03:26N 01°17' E 103°47'0 0.0
2018-May-21 02:56N 01°17' E 103°47'0 0.0
2018-May-21 02:29N 01°17' E 103°47'0 0.0
2018-May-21 01:53N 01°17' E 103°47'0 0.0
2018-May-21 01:20N 01°17' E 103°47'0 0.0
2018-May-21 01:00N 01°17' E 103°47'0 0.0
2018-May-21 00:30N 01°17' E 103°47'0 0.7
2018-May-21 00:00N 01°16' E 103°47'1 2.2
2018-May-20 23:30N 01°15' E 103°47'0 0.6
2018-May-20 23:00N 01°15' E 103°47'2 3.3
2018-May-20 22:30N 01°15' E 103°45'611.2
2018-May-20 22:00N 01°13' E 103°40'510.3
2018-May-20 21:30N 01°12' E 103°35'510.3
2018-May-20 21:00N 01°10' E 103°30'5 9.9
2018-May-20 20:30N 01°12' E 103°25'1 2.0
2018-May-20 20:00N 01°12' E 103°25'2 3.9
2018-May-20 19:30N 01°13' E 103°23'4 8.7
2018-May-20 18:59N 01°16' E 103°20'610.5
2018-May-20 18:27N 01°20' E 103°16'510.5
2018-May-20 17:57N 01°23' E 103°11'711.3
2018-May-20 17:22N 01°27' E 103°06'  
2018-May-13 17:14N 16°40' E 065°40'718.0
2018-May-13 16:51N 16°45' E 065°35'618.0
2018-May-13 16:30N 16°49' E 065°31'917.9
2018-May-13 16:00N 16°56' E 065°25'918.5
2018-May-13 15:30N 17°03' E 065°18'918.5
2018-May-13 14:59N 17°10' E 065°12'918.7
2018-May-13 14:30N 17°17' E 065°05'918.6
2018-May-13 14:00N 17°24' E 064°58'918.5
2018-May-13 13:30N 17°31' E 064°53'918.3
2018-May-13 13:00N 17°38' E 064°46'918.1
2018-May-13 12:30N 17°44' E 064°40'1018.1
2018-May-13 11:56N 17°52' E 064°33'818.0
2018-May-13 11:30N 17°58' E 064°28'917.8
2018-May-13 11:00N 18°05' E 064°22'5217.7
2018-May-13 08:04N 18°45' E 063°46'717.9
2018-May-13 07:41N 18°50' E 063°42'318.0
2018-May-13 07:30N 18°52' E 063°39'2918.2
2018-May-13 05:55N 19°14' E 063°19'1218.3
2018-May-13 05:16N 19°23' E 063°11'618.3
2018-May-13 04:56N 19°28' E 063°07'818.1
2018-May-13 04:28N 19°34' E 063°01'918.4
2018-May-13 03:58N 19°41' E 062°55'818.4
2018-May-13 03:30N 19°48' E 062°49'1018.5
2018-May-13 02:57N 19°56' E 062°42'  

Dump ship's entire track history